sensor_id;sensor_type;location;lat;lon;timestamp;temperature;humidity
22984;DHT22;11658;48.908;9.140;2024-02-21T05:02:42;5.50;99.90
22984;DHT22;11658;48.908;9.140;2024-02-21T05:05:08;5.60;99.90
22984;DHT22;11658;48.908;9.140;2024-02-21T05:07:34;5.60;99.90
22984;DHT22;11658;48.908;9.140;2024-02-21T05:10:00;5.60;99.90
22984;DHT22;11658;48.908;9.140;2024-02-21T05:12:26;5.50;99.90
22984;DHT22;11658;48.908;9.140;2024-02-21T05:14:51;5.50;99.90
22984;DHT22;11658;48.908;9.140;2024-02-21T05:17:17;5.50;99.90
22984;DHT22;11658;48.908;9.140;2024-02-21T05:19:42;5.50;99.90
22984;DHT22;11658;48.908;9.140;2024-02-21T05:22:08;5.50;99.90
22984;DHT22;11658;48.908;9.140;2024-02-21T05:24:34;5.50;99.90
22984;DHT22;11658;48.908;9.140;2024-02-21T05:26:59;5.50;99.90
22984;DHT22;11658;48.908;9.140;2024-02-21T05:29:25;5.50;99.90
22984;DHT22;11658;48.908;9.140;2024-02-21T05:34:16;5.50;99.90
22984;DHT22;11658;48.908;9.140;2024-02-21T05:36:42;5.50;99.90
22984;DHT22;11658;48.908;9.140;2024-02-21T05:39:07;5.50;99.90
22984;DHT22;11658;48.908;9.140;2024-02-21T05:41:33;5.50;99.90
22984;DHT22;11658;48.908;9.140;2024-02-21T05:43:58;5.40;99.90
22984;DHT22;11658;48.908;9.140;2024-02-21T05:46:24;5.40;99.90
22984;DHT22;11658;48.908;9.140;2024-02-21T05:48:50;5.40;99.90
22984;DHT22;11658;48.908;9.140;2024-02-21T05:51:15;5.40;99.90
22984;DHT22;11658;48.908;9.140;2024-02-21T05:53:41;5.40;99.90
22984;DHT22;11658;48.908;9.140;2024-02-21T05:56:15;5.40;99.90
22984;DHT22;11658;48.908;9.140;2024-02-21T05:58:42;5.40;99.90
22984;DHT22;11658;48.908;9.140;2024-02-21T06:01:08;5.40;99.90
22984;DHT22;11658;48.908;9.140;2024-02-21T06:03:34;5.40;99.90
22984;DHT22;11658;48.908;9.140;2024-02-21T06:06:00;5.40;99.90
22984;DHT22;11658;48.908;9.140;2024-02-21T06:08:26;5.30;99.90
22984;DHT22;11658;48.908;9.140;2024-02-21T06:10:52;5.30;99.90
22984;DHT22;11658;48.908;9.140;2024-02-21T06:13:20;5.40;99.90
22984;DHT22;11658;48.908;9.140;2024-02-21T06:15:47;5.40;99.90
22984;DHT22;11658;48.908;9.140;2024-02-21T06:18:12;5.30;99.90
22984;DHT22;11658;48.908;9.140;2024-02-21T06:20:38;5.30;99.90
22984;DHT22;11658;48.908;9.140;2024-02-21T06:23:06;5.20;99.90
22984;DHT22;11658;48.908;9.140;2024-02-21T06:25:31;5.30;99.90
22984;DHT22;11658;48.908;9.140;2024-02-21T06:27:57;5.30;99.90
22984;DHT22;11658;48.908;9.140;2024-02-21T06:30:22;5.30;99.90
22984;DHT22;11658;48.908;9.140;2024-02-21T06:32:48;5.40;99.90
22984;DHT22;11658;48.908;9.140;2024-02-21T06:35:13;5.40;99.90
22984;DHT22;11658;48.908;9.140;2024-02-21T06:37:39;5.40;99.90
22984;DHT22;11658;48.908;9.140;2024-02-21T06:40:05;5.30;99.90
22984;DHT22;11658;48.908;9.140;2024-02-21T06:42:31;5.30;99.90
22984;DHT22;11658;48.908;9.140;2024-02-21T06:44:56;5.30;99.90
22984;DHT22;11658;48.908;9.140;2024-02-21T06:47:22;5.30;99.90
22984;DHT22;11658;48.908;9.140;2024-02-21T06:49:51;5.30;99.90
22984;DHT22;11658;48.908;9.140;2024-02-21T06:52:20;5.30;99.90
22984;DHT22;11658;48.908;9.140;2024-02-21T06:54:46;5.30;99.90
22984;DHT22;11658;48.908;9.140;2024-02-21T06:57:13;5.40;99.90
22984;DHT22;11658;48.908;9.140;2024-02-21T06:59:40;5.40;99.90
22984;DHT22;11658;48.908;9.140;2024-02-21T07:02:05;5.40;99.90
22984;DHT22;11658;48.908;9.140;2024-02-21T07:04:31;5.50;99.90
22984;DHT22;11658;48.908;9.140;2024-02-21T07:06:56;5.50;99.90
22984;DHT22;11658;48.908;9.140;2024-02-21T07:09:22;5.50;99.90
22984;DHT22;11658;48.908;9.140;2024-02-21T07:11:48;5.60;99.90
22984;DHT22;11658;48.908;9.140;2024-02-21T07:14:17;5.60;99.90
22984;DHT22;11658;48.908;9.140;2024-02-21T07:16:43;5.60;99.90
22984;DHT22;11658;48.908;9.140;2024-02-21T07:19:09;5.70;99.90
22984;DHT22;11658;48.908;9.140;2024-02-21T07:21:34;5.70;99.90
22984;DHT22;11658;48.908;9.140;2024-02-21T07:24:03;5.80;99.90
22984;DHT22;11658;48.908;9.140;2024-02-21T07:26:29;5.80;99.90
22984;DHT22;11658;48.908;9.140;2024-02-21T07:28:55;5.90;99.90
22984;DHT22;11658;48.908;9.140;2024-02-21T07:31:20;6.00;99.90
22984;DHT22;11658;48.908;9.140;2024-02-21T07:33:46;6.10;99.90
22984;DHT22;11658;48.908;9.140;2024-02-21T07:36:11;6.20;99.90
22984;DHT22;11658;48.908;9.140;2024-02-21T07:38:37;6.30;99.90
22984;DHT22;11658;48.908;9.140;2024-02-21T07:41:03;6.40;99.90
22984;DHT22;11658;48.908;9.140;2024-02-21T07:43:29;6.50;99.90
22984;DHT22;11658;48.908;9.140;2024-02-21T07:45:55;6.70;99.90
22984;DHT22;11658;48.908;9.140;2024-02-21T07:48:21;6.80;99.90
22984;DHT22;11658;48.908;9.140;2024-02-21T07:50:50;7.00;99.90
22984;DHT22;11658;48.908;9.140;2024-02-21T07:53:16;7.00;99.90
22984;DHT22;11658;48.908;9.140;2024-02-21T07:55:41;7.10;99.90
22984;DHT22;11658;48.908;9.140;2024-02-21T07:58:07;7.20;99.90
22984;DHT22;11658;48.908;9.140;2024-02-21T08:00:33;7.30;99.90
22984;DHT22;11658;48.908;9.140;2024-02-21T08:02:58;7.30;99.90
22984;DHT22;11658;48.908;9.140;2024-02-21T08:05:24;7.30;99.90
22984;DHT22;11658;48.908;9.140;2024-02-21T08:07:50;7.50;99.90
22984;DHT22;11658;48.908;9.140;2024-02-21T08:10:15;7.60;99.90
22984;DHT22;11658;48.908;9.140;2024-02-21T08:12:41;7.60;99.90
22984;DHT22;11658;48.908;9.140;2024-02-21T08:15:07;7.70;99.90
22984;DHT22;11658;48.908;9.140;2024-02-21T08:17:36;7.90;99.90
22984;DHT22;11658;48.908;9.140;2024-02-21T08:20:01;8.10;99.90
22984;DHT22;11658;48.908;9.140;2024-02-21T08:22:28;8.10;99.90
22984;DHT22;11658;48.908;9.140;2024-02-21T08:24:53;8.10;99.90
22984;DHT22;11658;48.908;9.140;2024-02-21T08:27:19;8.20;99.90
22984;DHT22;11658;48.908;9.140;2024-02-21T08:29:44;8.40;99.90
22984;DHT22;11658;48.908;9.140;2024-02-21T08:32:11;8.40;99.90
22984;DHT22;11658;48.908;9.140;2024-02-21T08:34:36;8.40;99.90
22984;DHT22;11658;48.908;9.140;2024-02-21T08:37:02;8.60;99.90
22984;DHT22;11658;48.908;9.140;2024-02-21T08:39:27;8.60;99.90
22984;DHT22;11658;48.908;9.140;2024-02-21T08:41:55;8.70;99.90
22984;DHT22;11658;48.908;9.140;2024-02-21T08:44:23;8.90;99.90
22984;DHT22;11658;48.908;9.140;2024-02-21T08:46:51;8.80;99.90
22984;DHT22;11658;48.908;9.140;2024-02-21T08:49:16;8.80;99.90
22984;DHT22;11658;48.908;9.140;2024-02-21T08:51:42;9.00;99.90
22984;DHT22;11658;48.908;9.140;2024-02-21T08:54:08;8.50;99.90
22984;DHT22;11658;48.908;9.140;2024-02-21T08:56:34;8.40;99.90
22984;DHT22;11658;48.908;9.140;2024-02-21T08:59:01;8.60;99.90
22984;DHT22;11658;48.908;9.140;2024-02-21T09:01:26;8.80;99.90
22984;DHT22;11658;48.908;9.140;2024-02-21T09:03:52;9.00;99.90
22984;DHT22;11658;48.908;9.140;2024-02-21T09:06:19;9.00;99.90
22984;DHT22;11658;48.908;9.140;2024-02-21T09:08:48;9.10;99.90
22984;DHT22;11658;48.908;9.140;2024-02-21T09:11:14;9.30;99.90
22984;DHT22;11658;48.908;9.140;2024-02-21T09:13:40;9.20;99.90
22984;DHT22;11658;48.908;9.140;2024-02-21T09:16:05;9.10;99.90
22984;DHT22;11658;48.908;9.140;2024-02-21T09:18:31;9.10;99.90
22984;DHT22;11658;48.908;9.140;2024-02-21T09:20:57;9.20;99.90
22984;DHT22;11658;48.908;9.140;2024-02-21T09:23:25;9.20;99.90
22984;DHT22;11658;48.908;9.140;2024-02-21T09:25:51;9.20;99.90
22984;DHT22;11658;48.908;9.140;2024-02-21T09:28:16;9.40;99.90
22984;DHT22;11658;48.908;9.140;2024-02-21T09:30:42;9.60;99.90
22984;DHT22;11658;48.908;9.140;2024-02-21T09:33:08;9.40;99.90
22984;DHT22;11658;48.908;9.140;2024-02-21T09:35:33;9.20;99.90
22984;DHT22;11658;48.908;9.140;2024-02-21T09:37:59;9.40;99.90
22984;DHT22;11658;48.908;9.140;2024-02-21T09:40:25;9.50;99.90
22984;DHT22;11658;48.908;9.140;2024-02-21T09:43:01;9.40;99.90
22984;DHT22;11658;48.908;9.140;2024-02-21T09:45:28;9.60;99.90
22984;DHT22;11658;48.908;9.140;2024-02-21T09:48:19;9.70;99.90
22984;DHT22;11658;48.908;9.140;2024-02-21T09:50:49;9.50;99.90
22984;DHT22;11658;48.908;9.140;2024-02-21T09:53:16;9.80;99.90
22984;DHT22;11658;48.908;9.140;2024-02-21T09:55:43;9.90;99.90
22984;DHT22;11658;48.908;9.140;2024-02-21T09:58:09;10.00;99.90
22984;DHT22;11658;48.908;9.140;2024-02-21T10:00:37;10.10;99.90
22984;DHT22;11658;48.908;9.140;2024-02-21T10:03:03;10.10;99.90
22984;DHT22;11658;48.908;9.140;2024-02-21T10:05:36;10.10;99.90
22984;DHT22;11658;48.908;9.140;2024-02-21T10:08:03;10.30;99.90
22984;DHT22;11658;48.908;9.140;2024-02-21T10:10:29;10.30;99.90
22984;DHT22;11658;48.908;9.140;2024-02-21T10:12:56;10.30;99.90
22984;DHT22;11658;48.908;9.140;2024-02-21T10:15:24;10.40;99.90
22984;DHT22;11658;48.908;9.140;2024-02-21T10:18:00;10.40;99.90
22984;DHT22;11658;48.908;9.140;2024-02-21T10:20:26;10.40;99.90
22984;DHT22;11658;48.908;9.140;2024-02-21T10:23:05;10.40;99.90
22984;DHT22;11658;48.908;9.140;2024-02-21T10:25:36;10.50;99.90
22984;DHT22;11658;48.908;9.140;2024-02-21T10:28:07;10.50;99.90
22984;DHT22;11658;48.908;9.140;2024-02-21T10:30:32;10.60;99.90
22984;DHT22;11658;48.908;9.140;2024-02-21T10:32:58;10.70;99.90
22984;DHT22;11658;48.908;9.140;2024-02-21T10:35:27;10.80;99.90
22984;DHT22;11658;48.908;9.140;2024-02-21T10:37:57;10.70;99.90
22984;DHT22;11658;48.908;9.140;2024-02-21T10:40:27;10.70;99.90
22984;DHT22;11658;48.908;9.140;2024-02-21T10:42:58;10.70;99.90
22984;DHT22;11658;48.908;9.140;2024-02-21T10:45:32;10.90;99.90
22984;DHT22;11658;48.908;9.140;2024-02-21T10:48:12;10.90;99.90
22984;DHT22;11658;48.908;9.140;2024-02-21T10:51:03;11.10;99.90
22984;DHT22;11658;48.908;9.140;2024-02-21T10:53:44;11.10;99.90
22984;DHT22;11658;48.908;9.140;2024-02-21T10:56:18;11.20;99.90
22984;DHT22;11658;48.908;9.140;2024-02-21T10:58:46;10.80;99.90
22984;DHT22;11658;48.908;9.140;2024-02-21T11:01:12;10.90;99.90
22984;DHT22;11658;48.908;9.140;2024-02-21T11:03:41;10.80;99.90
22984;DHT22;11658;48.908;9.140;2024-02-21T11:06:11;10.90;99.90
22984;DHT22;11658;48.908;9.140;2024-02-21T11:08:37;11.10;99.90
22984;DHT22;11658;48.908;9.140;2024-02-21T11:11:04;11.30;99.90
22984;DHT22;11658;48.908;9.140;2024-02-21T11:13:37;11.30;99.90
22984;DHT22;11658;48.908;9.140;2024-02-21T11:16:10;11.50;99.90
22984;DHT22;11658;48.908;9.140;2024-02-21T11:18:39;11.60;99.90
22984;DHT22;11658;48.908;9.140;2024-02-21T11:21:05;11.80;99.90
22984;DHT22;11658;48.908;9.140;2024-02-21T11:23:31;11.30;99.90
22984;DHT22;11658;48.908;9.140;2024-02-21T11:26:09;11.20;99.90
22984;DHT22;11658;48.908;9.140;2024-02-21T11:28:36;10.90;99.90
22984;DHT22;11658;48.908;9.140;2024-02-21T11:31:13;11.20;99.90
22984;DHT22;11658;48.908;9.140;2024-02-21T11:33:42;11.30;99.90
22984;DHT22;11658;48.908;9.140;2024-02-21T11:36:10;11.20;99.90
22984;DHT22;11658;48.908;9.140;2024-02-21T11:38:36;11.00;99.90
22984;DHT22;11658;48.908;9.140;2024-02-21T11:41:02;11.20;99.90
22984;DHT22;11658;48.908;9.140;2024-02-21T11:43:28;11.20;99.90
22984;DHT22;11658;48.908;9.140;2024-02-21T11:46:01;11.20;99.90
22984;DHT22;11658;48.908;9.140;2024-02-21T11:48:26;11.20;99.90
22984;DHT22;11658;48.908;9.140;2024-02-21T11:50:56;11.40;99.90
22984;DHT22;11658;48.908;9.140;2024-02-21T11:53:22;11.50;99.90
22984;DHT22;11658;48.908;9.140;2024-02-21T11:55:48;11.80;99.90
22984;DHT22;11658;48.908;9.140;2024-02-21T11:58:14;11.70;99.90
22984;DHT22;11658;48.908;9.140;2024-02-21T12:00:40;11.30;99.90
22984;DHT22;11658;48.908;9.140;2024-02-21T12:03:07;11.20;99.90
22984;DHT22;11658;48.908;9.140;2024-02-21T12:05:33;11.40;99.90
22984;DHT22;11658;48.908;9.140;2024-02-21T12:07:58;11.60;99.90
22984;DHT22;11658;48.908;9.140;2024-02-21T12:10:26;11.60;99.90
22984;DHT22;11658;48.908;9.140;2024-02-21T12:12:53;11.50;99.90
22984;DHT22;11658;48.908;9.140;2024-02-21T12:15:20;11.30;99.90
22984;DHT22;11658;48.908;9.140;2024-02-21T12:17:45;11.60;99.90
22984;DHT22;11658;48.908;9.140;2024-02-21T12:20:11;11.80;99.90
22984;DHT22;11658;48.908;9.140;2024-02-21T12:22:41;12.00;99.90
22984;DHT22;11658;48.908;9.140;2024-02-21T12:25:17;12.00;99.90
22984;DHT22;11658;48.908;9.140;2024-02-21T12:27:48;12.20;99.90
22984;DHT22;11658;48.908;9.140;2024-02-21T12:30:14;12.30;99.90
22984;DHT22;11658;48.908;9.140;2024-02-21T12:32:40;12.20;99.90
22984;DHT22;11658;48.908;9.140;2024-02-21T12:35:07;12.20;99.90
22984;DHT22;11658;48.908;9.140;2024-02-21T12:37:33;12.70;99.90
22984;DHT22;11658;48.908;9.140;2024-02-21T12:39:59;12.70;99.90
22984;DHT22;11658;48.908;9.140;2024-02-21T12:42:24;12.90;99.90
22984;DHT22;11658;48.908;9.140;2024-02-21T12:44:51;13.00;99.90
22984;DHT22;11658;48.908;9.140;2024-02-21T12:47:18;12.90;99.90
22984;DHT22;11658;48.908;9.140;2024-02-21T12:49:45;12.80;99.90
22984;DHT22;11658;48.908;9.140;2024-02-21T12:52:11;12.70;99.90
22984;DHT22;11658;48.908;9.140;2024-02-21T12:54:37;12.60;99.90
22984;DHT22;11658;48.908;9.140;2024-02-21T12:57:02;12.60;99.90
22984;DHT22;11658;48.908;9.140;2024-02-21T12:59:29;12.80;99.90
22984;DHT22;11658;48.908;9.140;2024-02-21T13:01:54;12.70;99.90
22984;DHT22;11658;48.908;9.140;2024-02-21T13:04:20;12.80;99.90
22984;DHT22;11658;48.908;9.140;2024-02-21T13:06:48;12.30;99.90
22984;DHT22;11658;48.908;9.140;2024-02-21T13:09:14;12.10;99.90
22984;DHT22;11658;48.908;9.140;2024-02-21T13:11:40;12.60;99.90
22984;DHT22;11658;48.908;9.140;2024-02-21T13:14:06;13.00;99.90
22984;DHT22;11658;48.908;9.140;2024-02-21T13:16:32;13.30;99.90
22984;DHT22;11658;48.908;9.140;2024-02-21T13:19:04;13.40;99.90
22984;DHT22;11658;48.908;9.140;2024-02-21T13:21:30;13.50;99.90
22984;DHT22;11658;48.908;9.140;2024-02-21T13:23:55;13.50;99.90
22984;DHT22;11658;48.908;9.140;2024-02-21T13:26:22;13.60;99.90
22984;DHT22;11658;48.908;9.140;2024-02-21T13:28:48;13.50;99.90
22984;DHT22;11658;48.908;9.140;2024-02-21T13:31:14;13.60;99.90
22984;DHT22;11658;48.908;9.140;2024-02-21T13:33:42;13.40;99.90
22984;DHT22;11658;48.908;9.140;2024-02-21T13:36:07;13.50;99.90
22984;DHT22;11658;48.908;9.140;2024-02-21T13:38:33;13.70;99.90
22984;DHT22;11658;48.908;9.140;2024-02-21T13:40:59;13.80;99.90
22984;DHT22;11658;48.908;9.140;2024-02-21T13:43:25;14.00;99.90
22984;DHT22;11658;48.908;9.140;2024-02-21T13:45:58;13.90;99.90
22984;DHT22;11658;48.908;9.140;2024-02-21T13:48:25;13.70;99.90
22984;DHT22;11658;48.908;9.140;2024-02-21T13:50:50;13.90;99.90
22984;DHT22;11658;48.908;9.140;2024-02-21T13:53:16;14.10;99.90
22984;DHT22;11658;48.908;9.140;2024-02-21T13:55:44;14.10;99.90
22984;DHT22;11658;48.908;9.140;2024-02-21T13:58:10;13.90;99.90
22984;DHT22;11658;48.908;9.140;2024-02-21T14:00:36;13.40;99.90
22984;DHT22;11658;48.908;9.140;2024-02-21T14:03:02;13.50;99.90
22984;DHT22;11658;48.908;9.140;2024-02-21T14:05:27;13.80;99.90
22984;DHT22;11658;48.908;9.140;2024-02-21T14:07:53;13.70;99.90
22984;DHT22;11658;48.908;9.140;2024-02-21T14:10:20;13.90;99.90
22984;DHT22;11658;48.908;9.140;2024-02-21T14:12:46;14.00;99.90
22984;DHT22;11658;48.908;9.140;2024-02-21T14:15:13;13.90;99.90
22984;DHT22;11658;48.908;9.140;2024-02-21T14:17:39;13.80;99.90
22984;DHT22;11658;48.908;9.140;2024-02-21T14:20:06;13.70;99.90
22984;DHT22;11658;48.908;9.140;2024-02-21T14:22:31;13.80;99.90
22984;DHT22;11658;48.908;9.140;2024-02-21T14:24:57;13.80;99.90
22984;DHT22;11658;48.908;9.140;2024-02-21T14:27:22;13.50;99.90
22984;DHT22;11658;48.908;9.140;2024-02-21T14:29:48;13.30;99.90
22984;DHT22;11658;48.908;9.140;2024-02-21T14:32:14;13.10;99.90
22984;DHT22;11658;48.908;9.140;2024-02-21T14:34:39;12.90;99.90
22984;DHT22;11658;48.908;9.140;2024-02-21T14:37:05;12.80;99.90
22984;DHT22;11658;48.908;9.140;2024-02-21T14:39:31;12.80;99.90
22984;DHT22;11658;48.908;9.140;2024-02-21T14:41:58;12.70;99.90
22984;DHT22;11658;48.908;9.140;2024-02-21T14:44:25;12.60;99.90
22984;DHT22;11658;48.908;9.140;2024-02-21T14:46:51;12.50;99.90
22984;DHT22;11658;48.908;9.140;2024-02-21T14:49:16;12.40;99.90
22984;DHT22;11658;48.908;9.140;2024-02-21T14:51:42;12.30;99.90
22984;DHT22;11658;48.908;9.140;2024-02-21T14:54:07;12.30;99.90
22984;DHT22;11658;48.908;9.140;2024-02-21T14:56:33;12.30;99.90
22984;DHT22;11658;48.908;9.140;2024-02-21T14:58:59;12.30;99.90
22984;DHT22;11658;48.908;9.140;2024-02-21T15:01:25;12.30;99.90
22984;DHT22;11658;48.908;9.140;2024-02-21T15:03:50;12.30;99.90
22984;DHT22;11658;48.908;9.140;2024-02-21T15:06:17;12.20;99.90
22984;DHT22;11658;48.908;9.140;2024-02-21T15:08:42;12.20;99.90
22984;DHT22;11658;48.908;9.140;2024-02-21T15:11:08;12.20;99.90
22984;DHT22;11658;48.908;9.140;2024-02-21T15:13:34;12.30;99.90
22984;DHT22;11658;48.908;9.140;2024-02-21T15:15:59;12.20;99.90
22984;DHT22;11658;48.908;9.140;2024-02-21T15:18:25;12.20;99.90
22984;DHT22;11658;48.908;9.140;2024-02-21T15:20:50;12.10;99.90
22984;DHT22;11658;48.908;9.140;2024-02-21T15:23:16;12.10;99.90
22984;DHT22;11658;48.908;9.140;2024-02-21T15:25:43;12.00;99.90
22984;DHT22;11658;48.908;9.140;2024-02-21T15:28:09;12.00;99.90
22984;DHT22;11658;48.908;9.140;2024-02-21T15:30:35;12.00;99.90
22984;DHT22;11658;48.908;9.140;2024-02-21T15:33:01;12.00;99.90
22984;DHT22;11658;48.908;9.140;2024-02-21T15:35:30;11.90;99.90
22984;DHT22;11658;48.908;9.140;2024-02-21T15:37:57;11.90;99.90
22984;DHT22;11658;48.908;9.140;2024-02-21T15:40:23;11.80;99.90
22984;DHT22;11658;48.908;9.140;2024-02-21T15:42:48;11.70;99.90
22984;DHT22;11658;48.908;9.140;2024-02-21T15:45:14;11.70;99.90
22984;DHT22;11658;48.908;9.140;2024-02-21T15:47:40;11.70;99.90
22984;DHT22;11658;48.908;9.140;2024-02-21T15:50:06;11.70;99.90
22984;DHT22;11658;48.908;9.140;2024-02-21T15:52:32;11.70;99.90
22984;DHT22;11658;48.908;9.140;2024-02-21T15:54:58;11.80;99.90
22984;DHT22;11658;48.908;9.140;2024-02-21T15:57:24;11.70;99.90
22984;DHT22;11658;48.908;9.140;2024-02-21T15:59:49;11.70;99.90
22984;DHT22;11658;48.908;9.140;2024-02-21T16:02:16;11.80;99.90
22984;DHT22;11658;48.908;9.140;2024-02-21T16:04:41;11.80;99.90
22984;DHT22;11658;48.908;9.140;2024-02-21T16:07:07;11.70;99.90
22984;DHT22;11658;48.908;9.140;2024-02-21T16:09:33;11.60;99.90
22984;DHT22;11658;48.908;9.140;2024-02-21T16:11:58;11.70;99.90
22984;DHT22;11658;48.908;9.140;2024-02-21T16:14:31;11.70;99.90
22984;DHT22;11658;48.908;9.140;2024-02-21T16:16:57;11.80;99.90
22984;DHT22;11658;48.908;9.140;2024-02-21T16:19:23;11.80;99.90
22984;DHT22;11658;48.908;9.140;2024-02-21T16:21:48;11.80;99.90
22984;DHT22;11658;48.908;9.140;2024-02-21T16:24:14;11.80;99.90
22984;DHT22;11658;48.908;9.140;2024-02-21T16:26:40;11.80;99.90
22984;DHT22;11658;48.908;9.140;2024-02-21T16:29:06;11.70;99.90
22984;DHT22;11658;48.908;9.140;2024-02-21T16:31:34;11.60;99.90
22984;DHT22;11658;48.908;9.140;2024-02-21T16:34:02;11.60;99.90
22984;DHT22;11658;48.908;9.140;2024-02-21T16:36:28;11.50;99.90
22984;DHT22;11658;48.908;9.140;2024-02-21T16:38:53;11.60;99.90
22984;DHT22;11658;48.908;9.140;2024-02-21T16:41:19;11.60;99.90
22984;DHT22;11658;48.908;9.140;2024-02-21T16:43:46;11.60;99.90
22984;DHT22;11658;48.908;9.140;2024-02-21T16:46:12;11.60;99.90
22984;DHT22;11658;48.908;9.140;2024-02-21T16:48:37;11.50;99.90
22984;DHT22;11658;48.908;9.140;2024-02-21T16:51:04;11.40;99.90
22984;DHT22;11658;48.908;9.140;2024-02-21T16:53:31;11.30;99.90
22984;DHT22;11658;48.908;9.140;2024-02-21T16:55:56;11.30;99.90
22984;DHT22;11658;48.908;9.140;2024-02-21T16:58:22;11.30;99.90
22984;DHT22;11658;48.908;9.140;2024-02-21T17:00:48;11.30;99.90
22984;DHT22;11658;48.908;9.140;2024-02-21T17:03:13;11.30;99.90
22984;DHT22;11658;48.908;9.140;2024-02-21T17:05:45;11.30;99.90
22984;DHT22;11658;48.908;9.140;2024-02-21T17:08:10;11.30;99.90
22984;DHT22;11658;48.908;9.140;2024-02-21T17:10:36;11.20;99.90
22984;DHT22;11658;48.908;9.140;2024-02-21T17:13:02;11.20;99.90
22984;DHT22;11658;48.908;9.140;2024-02-21T17:15:29;11.10;99.90
22984;DHT22;11658;48.908;9.140;2024-02-21T17:17:55;11.10;99.90
22984;DHT22;11658;48.908;9.140;2024-02-21T17:20:20;11.10;99.90
22984;DHT22;11658;48.908;9.140;2024-02-21T17:22:46;11.20;99.90
22984;DHT22;11658;48.908;9.140;2024-02-21T17:25:11;11.10;99.90
22984;DHT22;11658;48.908;9.140;2024-02-21T17:27:37;11.10;99.90
22984;DHT22;11658;48.908;9.140;2024-02-21T17:30:04;10.90;99.90
22984;DHT22;11658;48.908;9.140;2024-02-21T17:32:31;10.90;99.90
22984;DHT22;11658;48.908;9.140;2024-02-21T17:34:57;10.90;99.90
22984;DHT22;11658;48.908;9.140;2024-02-21T17:37:23;10.90;99.90
22984;DHT22;11658;48.908;9.140;2024-02-21T17:39:48;11.00;99.90
22984;DHT22;11658;48.908;9.140;2024-02-21T17:42:15;10.90;99.90
22984;DHT22;11658;48.908;9.140;2024-02-21T17:44:41;10.80;99.90
22984;DHT22;11658;48.908;9.140;2024-02-21T17:47:11;10.90;99.90
22984;DHT22;11658;48.908;9.140;2024-02-21T17:49:38;10.90;99.90
22984;DHT22;11658;48.908;9.140;2024-02-21T17:52:04;10.90;99.90
22984;DHT22;11658;48.908;9.140;2024-02-21T17:54:29;10.90;99.90
22984;DHT22;11658;48.908;9.140;2024-02-21T17:56:55;10.80;99.90
22984;DHT22;11658;48.908;9.140;2024-02-21T17:59:22;10.70;99.90
22984;DHT22;11658;48.908;9.140;2024-02-21T18:01:47;10.80;99.90
22984;DHT22;11658;48.908;9.140;2024-02-21T18:04:13;10.90;99.90
22984;DHT22;11658;48.908;9.140;2024-02-21T18:06:39;11.00;99.90
22984;DHT22;11658;48.908;9.140;2024-02-21T18:09:04;11.00;99.90
22984;DHT22;11658;48.908;9.140;2024-02-21T18:11:30;11.00;99.90
22984;DHT22;11658;48.908;9.140;2024-02-21T18:13:56;11.00;99.90
22984;DHT22;11658;48.908;9.140;2024-02-21T18:16:23;10.90;99.90
22984;DHT22;11658;48.908;9.140;2024-02-21T18:18:49;10.80;99.90
22984;DHT22;11658;48.908;9.140;2024-02-21T18:21:15;10.80;99.90
22984;DHT22;11658;48.908;9.140;2024-02-21T18:23:40;10.80;99.90
22984;DHT22;11658;48.908;9.140;2024-02-21T18:26:06;10.70;99.90
22984;DHT22;11658;48.908;9.140;2024-02-21T18:28:32;10.70;99.90
22984;DHT22;11658;48.908;9.140;2024-02-21T18:30:58;10.70;99.90
22984;DHT22;11658;48.908;9.140;2024-02-21T18:33:24;10.60;99.90
22984;DHT22;11658;48.908;9.140;2024-02-21T18:35:49;10.40;99.90
22984;DHT22;11658;48.908;9.140;2024-02-21T18:38:16;10.50;99.90
22984;DHT22;11658;48.908;9.140;2024-02-21T18:40:41;10.60;99.90
22984;DHT22;11658;48.908;9.140;2024-02-21T18:43:07;10.60;99.90
22984;DHT22;11658;48.908;9.140;2024-02-21T18:45:34;10.60;99.90
22984;DHT22;11658;48.908;9.140;2024-02-21T18:47:59;10.60;99.90
22984;DHT22;11658;48.908;9.140;2024-02-21T18:50:25;10.70;99.90
22984;DHT22;11658;48.908;9.140;2024-02-21T18:52:51;10.50;99.90
22984;DHT22;11658;48.908;9.140;2024-02-21T18:55:18;10.50;99.90
22984;DHT22;11658;48.908;9.140;2024-02-21T18:57:44;10.60;99.90
22984;DHT22;11658;48.908;9.140;2024-02-21T19:00:10;10.60;99.90
22984;DHT22;11658;48.908;9.140;2024-02-21T19:02:40;10.60;99.90
22984;DHT22;11658;48.908;9.140;2024-02-21T19:05:06;10.60;99.90
22984;DHT22;11658;48.908;9.140;2024-02-21T19:07:32;10.60;99.90
22984;DHT22;11658;48.908;9.140;2024-02-21T19:10:00;10.50;99.90
22984;DHT22;11658;48.908;9.140;2024-02-21T19:12:26;10.50;99.90
22984;DHT22;11658;48.908;9.140;2024-02-21T19:14:52;10.60;99.90
22984;DHT22;11658;48.908;9.140;2024-02-21T19:17:18;10.50;99.90
22984;DHT22;11658;48.908;9.140;2024-02-21T19:19:43;10.50;99.90
22984;DHT22;11658;48.908;9.140;2024-02-21T19:22:10;10.40;99.90
22984;DHT22;11658;48.908;9.140;2024-02-21T19:24:35;10.40;99.90
22984;DHT22;11658;48.908;9.140;2024-02-21T19:27:01;10.50;99.90
22984;DHT22;11658;48.908;9.140;2024-02-21T19:29:28;10.50;99.90
22984;DHT22;11658;48.908;9.140;2024-02-21T19:31:53;10.60;99.90
22984;DHT22;11658;48.908;9.140;2024-02-21T19:34:19;10.60;99.90
22984;DHT22;11658;48.908;9.140;2024-02-21T19:36:45;10.60;99.90
22984;DHT22;11658;48.908;9.140;2024-02-21T19:39:11;10.60;99.90
22984;DHT22;11658;48.908;9.140;2024-02-21T19:41:37;10.50;99.90
22984;DHT22;11658;48.908;9.140;2024-02-21T19:44:04;10.50;99.90
22984;DHT22;11658;48.908;9.140;2024-02-21T19:46:29;10.50;99.90
22984;DHT22;11658;48.908;9.140;2024-02-21T19:48:55;10.50;99.90
22984;DHT22;11658;48.908;9.140;2024-02-21T19:51:21;10.40;99.90
22984;DHT22;11658;48.908;9.140;2024-02-21T19:53:50;10.40;99.90
22984;DHT22;11658;48.908;9.140;2024-02-21T19:56:16;10.40;99.90
22984;DHT22;11658;48.908;9.140;2024-02-21T19:58:42;10.40;99.90
22984;DHT22;11658;48.908;9.140;2024-02-21T20:01:07;10.30;99.90
22984;DHT22;11658;48.908;9.140;2024-02-21T20:03:33;10.30;99.90
22984;DHT22;11658;48.908;9.140;2024-02-21T20:05:58;10.40;99.90
22984;DHT22;11658;48.908;9.140;2024-02-21T20:08:24;10.40;99.90
22984;DHT22;11658;48.908;9.140;2024-02-21T20:10:50;10.40;99.90
22984;DHT22;11658;48.908;9.140;2024-02-21T20:13:15;10.40;99.90
22984;DHT22;11658;48.908;9.140;2024-02-21T20:15:41;10.50;99.90
22984;DHT22;11658;48.908;9.140;2024-02-21T20:18:09;10.50;99.90
22984;DHT22;11658;48.908;9.140;2024-02-21T20:20:37;10.50;99.90
22984;DHT22;11658;48.908;9.140;2024-02-21T20:23:03;10.50;99.90
22984;DHT22;11658;48.908;9.140;2024-02-21T20:25:29;10.50;99.90
22984;DHT22;11658;48.908;9.140;2024-02-21T20:27:54;10.40;99.90
22984;DHT22;11658;48.908;9.140;2024-02-21T20:30:20;10.30;99.90
22984;DHT22;11658;48.908;9.140;2024-02-21T20:32:46;10.30;99.90
22984;DHT22;11658;48.908;9.140;2024-02-21T20:35:16;10.30;99.90